Antonello — IKVS — position and weather

sailwx.info

Track history (hours):
 
Tides and Currents Weather Stations Pressure Air Temp Water Temp Dewpoint Dewpoint Depression Visibility Wind Speed Wind Dir Waves Ship Positions

Antonello

Last reported at 2016-Sep-21 02:30 UTC. Time now 2016-Sep-27 06:58 UTC.
Position N 37°54' E 015°53'.

Length 70 m; draft 2.5 m.

Type: Ship. MMSI: 247422000.

Date/timePositionNaut miles runAvg speedWind from/ knotsBaromVisibWave heightAir tempDewpointWater temp
2016-Sep-21 02:30N 37°54' E 015°53'59 4.4
2016-Sep-20 13:17N 38°38' E 015°05'0 0.1
2016-Sep-20 08:04N 38°38' E 015°05'0 0.0
2016-Sep-20 07:31N 38°38' E 015°05'0 0.0
2016-Sep-20 06:33N 38°38' E 015°05'12 3.1
2016-Sep-20 02:31N 38°28' E 014°58'0 0.0
2016-Sep-19 23:26N 38°28' E 014°58'0 0.0
2016-Sep-19 19:23N 38°28' E 014°58'0 0.0
2016-Sep-19 18:08N 38°28' E 014°58'0 0.0
2016-Sep-19 16:25N 38°28' E 014°58'0 0.0
2016-Sep-19 14:08N 38°28' E 014°58'0 0.0
2016-Sep-19 13:08N 38°28' E 014°58'0 0.0
2016-Sep-19 12:25N 38°28' E 014°58'0 0.0
2016-Sep-19 11:16N 38°28' E 014°58'0 0.0
2016-Sep-19 09:33N 38°28' E 014°58'0 0.0
2016-Sep-19 07:16N 38°28' E 014°58'0 0.0
2016-Sep-19 03:08N 38°28' E 014°58'0 0.0
2016-Sep-19 02:31N 38°28' E 014°58'0 0.0
2016-Sep-19 00:24N 38°28' E 014°58'0 0.0
2016-Sep-18 19:33N 38°28' E 014°58'0 0.0
2016-Sep-18 15:13N 38°28' E 014°58'0 0.0
2016-Sep-18 14:33N 38°28' E 014°58'0 0.0
2016-Sep-18 10:31N 38°28' E 014°58'0 0.0
2016-Sep-18 09:15N 38°28' E 014°58'44 6.6
2016-Sep-18 02:33N 38°27' E 015°54'0 0.0
2016-Sep-18 01:33N 38°27' E 015°54'0 0.0
2016-Sep-18 00:33N 38°27' E 015°54'0 0.0
2016-Sep-17 22:32N 38°27' E 015°54'0 0.0
2016-Sep-17 21:33N 38°27' E 015°54'0 0.2
2016-Sep-17 20:33N 38°27' E 015°54'38 2.4
2016-Sep-17 04:33N 38°49' E 015°14'6 1.6
2016-Sep-17 00:33N 38°44' E 015°19'28 2.4
2016-Sep-16 12:33N 38°28' E 015°50'1 0.3
2016-Sep-16 09:33N 38°27' E 015°49'9 4.6
2016-Sep-16 07:34N 38°27' E 015°37'13 0.7
2016-Sep-15 12:34N 38°27' E 015°54'0 0.0
2016-Sep-15 11:34N 38°27' E 015°54'7 1.0
2016-Sep-15 04:33N 38°30' E 015°46'2 1.1
2016-Sep-15 03:07N 38°31' E 015°45'2 1.1
2016-Sep-15 01:23N 38°30' E 015°47'19 6.9
2016-Sep-14 22:33N 38°42' E 015°27'14 1.0
2016-Sep-14 08:24N 38°48' E 015°11'17 3.4
2016-Sep-14 03:33N 38°39' E 015°28'24 4.7
2016-Sep-13 22:33N 38°27' E 015°54'0 0.0
2016-Sep-13 20:33N 38°27' E 015°54'0 0.0
2016-Sep-13 18:33N 38°27' E 015°54'2 2.0
2016-Sep-13 17:33N 38°27' E 015°52'1 1.1
2016-Sep-13 16:33N 38°26' E 015°50'2 0.3
2016-Sep-13 09:10N 38°28' E 015°49'0 0.0
2016-Sep-13 07:33N 38°28' E 015°49'0 0.1
2016-Sep-13 06:33N 38°28' E 015°50'8 3.9
2016-Sep-13 04:33N 38°33' E 015°41'3 1.4
2016-Sep-13 02:33N 38°30' E 015°42'8 2.6
2016-Sep-12 23:33N 38°28' E 015°33'16 8.2
2016-Sep-12 21:33N 38°29' E 015°12'11 0.6
2016-Sep-12 03:33N 38°33' E 014°59'7 3.4
2016-Sep-12 01:33N 38°32' E 015°08'16 8.1
2016-Sep-11 23:33N 38°30' E 015°28'8 7.8
2016-Sep-11 22:33N 38°29' E 015°38'7 7.2
2016-Sep-11 21:33N 38°28' E 015°47'6 5.7
2016-Sep-11 20:33N 38°27' E 015°54'0 0.0
2016-Sep-11 19:33N 38°27' E 015°54'0 0.0
2016-Sep-11 18:33N 38°27' E 015°54'0 0.0
2016-Sep-11 17:33N 38°27' E 015°54'0 0.0
2016-Sep-11 16:33N 38°27' E 015°54'0 0.0
2016-Sep-11 15:33N 38°27' E 015°54'2 2.2
2016-Sep-11 14:33N 38°26' E 015°51'2 2.3
2016-Sep-11 13:33N 38°27' E 015°49'0 0.0
2016-Sep-11 12:33N 38°27' E 015°49'1 1.2
2016-Sep-11 11:33N 38°28' E 015°50'6 5.9
2016-Sep-11 10:33N 38°33' E 015°49'1 0.3
2016-Sep-11 08:33N 38°33' E 015°49'1 1.0
2016-Sep-11 07:33N 38°32' E 015°49'8 2.0
2016-Sep-11 03:33N 38°39' E 015°43'0 0.4
2016-Sep-11 02:33N 38°38' E 015°43'  
Track history (hours):
 
Tides and Currents Weather Stations Pressure Air Temp Water Temp Dewpoint Dewpoint Depression Visibility Wind Speed Wind Dir Waves Ship Positions

Antonello

Last reported at 2016-Sep-21 02:30 UTC. Time now 2016-Sep-27 06:58 UTC.
Position N 37°54' E 015°53'.

Length 70 m; draft 2.5 m.

Type: Ship. MMSI: 247422000.

Date/timePositionNaut miles runAvg speedWind from/ knotsBaromVisibWave heightAir tempDewpointWater temp
2016-Sep-21 02:30N 37°54' E 015°53'59 4.4
2016-Sep-20 13:17N 38°38' E 015°05'0 0.1
2016-Sep-20 08:04N 38°38' E 015°05'0 0.0
2016-Sep-20 07:31N 38°38' E 015°05'0 0.0
2016-Sep-20 06:33N 38°38' E 015°05'12 3.1
2016-Sep-20 02:31N 38°28' E 014°58'0 0.0
2016-Sep-19 23:26N 38°28' E 014°58'0 0.0
2016-Sep-19 19:23N 38°28' E 014°58'0 0.0
2016-Sep-19 18:08N 38°28' E 014°58'0 0.0
2016-Sep-19 16:25N 38°28' E 014°58'0 0.0
2016-Sep-19 14:08N 38°28' E 014°58'0 0.0
2016-Sep-19 13:08N 38°28' E 014°58'0 0.0
2016-Sep-19 12:25N 38°28' E 014°58'0 0.0
2016-Sep-19 11:16N 38°28' E 014°58'0 0.0
2016-Sep-19 09:33N 38°28' E 014°58'0 0.0
2016-Sep-19 07:16N 38°28' E 014°58'0 0.0
2016-Sep-19 03:08N 38°28' E 014°58'0 0.0
2016-Sep-19 02:31N 38°28' E 014°58'0 0.0
2016-Sep-19 00:24N 38°28' E 014°58'0 0.0
2016-Sep-18 19:33N 38°28' E 014°58'0 0.0
2016-Sep-18 15:13N 38°28' E 014°58'0 0.0
2016-Sep-18 14:33N 38°28' E 014°58'0 0.0
2016-Sep-18 10:31N 38°28' E 014°58'0 0.0
2016-Sep-18 09:15N 38°28' E 014°58'44 6.6
2016-Sep-18 02:33N 38°27' E 015°54'0 0.0
2016-Sep-18 01:33N 38°27' E 015°54'0 0.0
2016-Sep-18 00:33N 38°27' E 015°54'0 0.0
2016-Sep-17 22:32N 38°27' E 015°54'0 0.0
2016-Sep-17 21:33N 38°27' E 015°54'0 0.2
2016-Sep-17 20:33N 38°27' E 015°54'38 2.4
2016-Sep-17 04:33N 38°49' E 015°14'6 1.6
2016-Sep-17 00:33N 38°44' E 015°19'28 2.4
2016-Sep-16 12:33N 38°28' E 015°50'1 0.3
2016-Sep-16 09:33N 38°27' E 015°49'9 4.6
2016-Sep-16 07:34N 38°27' E 015°37'13 0.7
2016-Sep-15 12:34N 38°27' E 015°54'0 0.0
2016-Sep-15 11:34N 38°27' E 015°54'7 1.0
2016-Sep-15 04:33N 38°30' E 015°46'2 1.1
2016-Sep-15 03:07N 38°31' E 015°45'2 1.1
2016-Sep-15 01:23N 38°30' E 015°47'19 6.9
2016-Sep-14 22:33N 38°42' E 015°27'14 1.0
2016-Sep-14 08:24N 38°48' E 015°11'17 3.4
2016-Sep-14 03:33N 38°39' E 015°28'24 4.7
2016-Sep-13 22:33N 38°27' E 015°54'0 0.0
2016-Sep-13 20:33N 38°27' E 015°54'0 0.0
2016-Sep-13 18:33N 38°27' E 015°54'2 2.0
2016-Sep-13 17:33N 38°27' E 015°52'1 1.1
2016-Sep-13 16:33N 38°26' E 015°50'2 0.3
2016-Sep-13 09:10N 38°28' E 015°49'0 0.0
2016-Sep-13 07:33N 38°28' E 015°49'0 0.1
2016-Sep-13 06:33N 38°28' E 015°50'8 3.9
2016-Sep-13 04:33N 38°33' E 015°41'3 1.4
2016-Sep-13 02:33N 38°30' E 015°42'8 2.6
2016-Sep-12 23:33N 38°28' E 015°33'16 8.2
2016-Sep-12 21:33N 38°29' E 015°12'11 0.6
2016-Sep-12 03:33N 38°33' E 014°59'7 3.4
2016-Sep-12 01:33N 38°32' E 015°08'16 8.1
2016-Sep-11 23:33N 38°30' E 015°28'8 7.8
2016-Sep-11 22:33N 38°29' E 015°38'7 7.2
2016-Sep-11 21:33N 38°28' E 015°47'6 5.7
2016-Sep-11 20:33N 38°27' E 015°54'0 0.0
2016-Sep-11 19:33N 38°27' E 015°54'0 0.0
2016-Sep-11 18:33N 38°27' E 015°54'0 0.0
2016-Sep-11 17:33N 38°27' E 015°54'0 0.0
2016-Sep-11 16:33N 38°27' E 015°54'0 0.0
2016-Sep-11 15:33N 38°27' E 015°54'2 2.2
2016-Sep-11 14:33N 38°26' E 015°51'2 2.3
2016-Sep-11 13:33N 38°27' E 015°49'0 0.0
2016-Sep-11 12:33N 38°27' E 015°49'1 1.2
2016-Sep-11 11:33N 38°28' E 015°50'6 5.9
2016-Sep-11 10:33N 38°33' E 015°49'1 0.3
2016-Sep-11 08:33N 38°33' E 015°49'1 1.0
2016-Sep-11 07:33N 38°32' E 015°49'8 2.0
2016-Sep-11 03:33N 38°39' E 015°43'0 0.4
2016-Sep-11 02:33N 38°38' E 015°43'  

Dump ship's entire track history